Latest Weather Observations for Middle Point

IDD60901

Issued at 6:41 am CST Thursday 5 May 2016 (issued every 10 minutes, with the page automatically refreshed every 10 minutes)

About weather observations | Map of Darwin area stations | Latest observations for Darwin area | Other Formats
Station Details ID: 014041 Name: MIDDLE POINT Lat: -12.61 Lon: 131.30 Height: 14.1 m
Data from the previous 72 hours. | See also: Recent months at Middle Point
Date/Time
CST
Tmp

°C
App
Tmp
°C
Dew
Point
°C
Rel
Hum
%
Delta-T

°C
Wind Press
QNH
hPa
Press
MSL
hPa
Rain
since
9 am
mm
Dir
 
Spd
km/h
Gust
km/h
Spd
kts
Gust
kts
05/06:30am 23.9 28.0 22.3 91 1.1 SSE 4 6 2 3 1011.1 1011.0 0.0
05/06:00am 24.1 28.1 22.7 92 0.9 S 6 7 3 4 1011.1 1011.0 0.0
05/05:30am 24.2 28.6 22.8 92 0.9 SSE 4 6 2 3 1010.9 1010.8 0.0
05/05:00am 24.0 28.9 22.4 91 1.1 CALM 0 0 0 0 1010.7 1010.7 0.0
05/04:30am 24.1 29.0 22.4 90 1.1 CALM 0 0 0 0 1010.7 1010.7 0.0
05/04:00am 24.2 29.2 22.5 90 1.1 CALM 0 0 0 0 1010.9 1010.8 0.0
05/03:30am 24.7 29.5 22.8 89 1.3 SSE 2 4 1 2 1011.0 1010.9 0.0
05/03:00am 25.1 29.2 23.3 90 1.2 SE 7 11 4 6 1011.3 1011.2 0.0
05/02:30am 25.1 28.9 23.5 91 1.1 SSE 9 13 5 7 1011.5 1011.4 0.0
05/02:00am 25.1 29.3 23.5 91 1.1 S 7 7 4 4 1011.6 1011.5 0.0
05/01:30am 25.1 28.9 23.5 91 1.1 SSE 9 11 5 6 1011.7 1011.6 0.0
05/01:00am 25.0 30.1 23.4 91 1.1 SE 2 2 1 1 1011.8 1011.7 0.0
05/12:30am 25.2 30.1 23.6 91 1.1 SE 4 4 2 2 1012.0 1011.9 0.0
05/12:00am 25.3 30.2 23.7 91 1.1 SSE 4 6 2 3 1012.1 1012.0 0.0
 
Date/Time
CST
Tmp

°C
App
Tmp
°C
Dew
Point
°C
Rel
Hum
%
Delta-T

°C
Wind Press
QNH
hPa
Press
MSL
hPa
Rain
since
9 am
mm
Dir
 
Spd
km/h
Gust
km/h
Spd
kts
Gust
kts
04/11:30pm 25.5 31.2 23.7 90 1.2 CALM 0 0 0 0 1012.3 1012.2 0.0
04/11:00pm 25.4 31.0 23.6 90 1.2 CALM 0 0 0 0 1012.3 1012.2 0.0
04/10:30pm 25.7 31.4 23.7 89 1.4 CALM 0 0 0 0 1012.2 1012.1 0.0
04/10:00pm 25.6 30.9 23.7 89 1.3 NW 2 4 1 2 1012.5 1012.4 0.0
04/09:30pm 25.6 30.0 23.5 88 1.4 NW 6 7 3 4 1012.3 1012.2 0.0
04/09:00pm 25.9 30.5 23.8 88 1.4 NNW 6 7 3 4 1012.1 1012.0 0.0
04/08:30pm 25.8 30.2 23.5 87 1.6 WNW 6 7 3 4 1011.9 1011.8 0.0
04/08:00pm 25.9 30.3 23.4 86 1.7 WNW 6 7 3 4 1011.4 1011.3 0.0
04/07:30pm 26.3 31.8 23.4 84 2.0 CALM 0 2 0 1 1010.9 1010.8 0.0
04/07:00pm 26.3 30.8 23.0 82 2.2 NW 4 6 2 3 1010.2 1010.2 0.0
04/06:30pm 26.8 30.8 22.8 79 2.7 NW 6 7 3 4 1009.8 1009.8 0.0
04/06:00pm 27.5 31.7 23.1 77 3.0 NW 6 7 3 4 1009.6 1009.6 0.0
04/05:30pm 27.9 32.5 23.1 75 3.3 W 4 6 2 3 1009.3 1009.3 0.0
04/05:00pm 27.6 31.7 23.0 76 3.1 NNW 6 7 3 4 1009.0 1009.0 0.0
04/04:30pm 27.5 31.3 22.7 75 3.3 NW 7 9 4 5 1009.0 1009.0 0.0
04/04:00pm 27.9 31.1 22.4 72 3.7 NNW 9 15 5 8 1008.9 1008.9 0.0
04/03:30pm 29.4 30.3 21.6 63 5.2 N 19 32 10 17 1008.8 1008.8 0.0
04/03:00pm 31.1 34.7 23.7 64 5.1 NNW 11 19 6 10 1008.8 1008.8 0.0
04/02:30pm 31.6 34.9 23.2 61 5.8 NNE 11 19 6 10 1009.0 1009.0 0.0
04/02:00pm 32.3 35.3 22.7 57 6.6 ENE 11 17 6 9 1009.3 1009.3 0.0
04/01:30pm 33.6 36.6 22.7 53 7.5 ENE 11 19 6 10 1009.5 1009.5 0.0
04/01:00pm 32.4 35.9 22.8 57 6.6 E 9 17 5 9 1010.1 1010.1 0.0
04/12:30pm 32.1 35.3 23.1 59 6.2 E 11 22 6 12 1010.7 1010.7 0.0
04/12:00pm 32.4 35.5 23.6 59 6.1 ENE 13 20 7 11 1011.3 1011.2 0.0
04/11:30am 31.9 34.9 24.0 63 5.5 ENE 15 24 8 13 1012.0 1011.9 0.0
04/11:00am 31.1 32.9 23.2 63 5.4 ENE 19 24 10 13 1012.5 1012.4 0.0
04/10:30am 31.1 34.2 24.2 66 4.8 E 15 20 8 11 1012.7 1012.6 0.0
04/10:00am 30.0 34.1 24.6 73 3.8 E 11 17 6 9 1013.0 1012.9 0.0
04/09:30am 28.9 33.6 24.9 79 2.8 ESE 9 13 5 7 1013.2 1013.1 0.0
04/09:00am 27.9 32.5 24.7 83 2.2 SE 9 15 5 8 1013.1 1013.0 13.2
04/08:30am 26.4 30.3 24.2 88 1.5 SSE 11 15 6 8 1012.9 1012.8 13.2
04/08:00am 25.6 30.2 23.8 90 1.2 S 6 7 3 4 1012.5 1012.4 13.2
04/07:30am 24.8 29.3 23.6 93 0.8 S 6 7 3 4 1011.9 1011.8 13.2
04/07:00am 24.3 28.8 22.9 92 0.9 S 4 6 2 3 1011.5 1011.4 13.2
04/06:30am 24.3 28.4 22.9 92 0.9 S 6 6 3 3 1011.4 1011.3 13.0
04/06:00am 24.4 28.3 23.0 92 0.9 SSE 7 9 4 5 1010.9 1010.8 13.0
04/05:30am 24.5 29.8 23.1 92 0.9 CALM 0 0 0 0 1010.5 1010.5 13.0
04/05:00am 24.7 29.8 23.3 92 1.0 SSW 2 2 1 1 1010.5 1010.5 13.0
04/04:30am 24.8 29.5 23.4 92 1.0 SSW 4 6 2 3 1010.5 1010.5 13.0
04/04:00am 24.9 29.7 23.5 92 1.0 SSW 4 6 2 3 1010.9 1010.8 13.0
04/03:30am 25.1 30.4 23.7 92 1.0 S 2 4 1 2 1010.9 1010.8 13.0
04/03:00am 25.2 29.8 23.8 92 1.0 S 6 7 3 4 1011.2 1011.1 13.0
04/02:30am 25.1 30.0 23.7 92 1.0 SE 4 6 2 3 1011.2 1011.1 13.0
04/02:00am 25.2 30.6 23.8 92 1.0 SE 2 4 1 2 1011.4 1011.3 13.0
04/01:30am 25.2 30.2 23.8 92 1.0 SE 4 4 2 2 1011.6 1011.5 13.0
04/01:00am 25.2 30.9 23.8 92 1.0 CALM 0 0 0 0 1011.9 1011.8 13.0
04/12:30am 25.3 30.7 23.9 92 1.0 S 2 6 1 3 1012.0 1011.9 13.0
04/12:00am 25.3 30.7 23.9 92 1.0 SSE 2 2 1 1 1011.9 1011.8 13.0
 
Date/Time
CST
Tmp

°C
App
Tmp
°C
Dew
Point
°C
Rel
Hum
%
Delta-T

°C
Wind Press
QNH
hPa
Press
MSL
hPa
Rain
since
9 am
mm
Dir
 
Spd
km/h
Gust
km/h
Spd
kts
Gust
kts
03/11:30pm 25.2 30.2 23.8 92 1.0 S 4 6 2 3 1012.0 1011.9 13.0
03/11:00pm 25.4 30.5 24.0 92 1.0 SSW 4 4 2 2 1012.2 1012.1 13.0
03/10:30pm 25.5 30.6 24.1 92 1.0 SSW 4 7 2 4 1012.2 1012.1 13.0
03/10:00pm 25.5 30.3 24.1 92 1.0 SSW 6 7 3 4 1012.4 1012.3 13.0
03/09:30pm 25.5 30.1 24.1 92 1.0 S 7 9 4 5 1012.3 1012.2 13.0
03/09:00pm 25.5 30.3 24.1 92 1.0 S 6 9 3 5 1012.2 1012.1 13.0
03/08:30pm 25.4 30.0 23.8 91 1.1 S 6 7 3 4 1011.8 1011.7 13.0
03/08:00pm 25.5 29.6 23.9 91 1.1 SSE 9 13 5 7 1011.1 1011.0 13.0
03/07:30pm 25.6 31.1 24.0 91 1.1 ENE 2 6 1 3 1010.2 1010.2 13.0
03/07:00pm 25.4 30.8 23.8 91 1.1 WSW 2 7 1 4 1010.2 1010.2 13.0
03/06:30pm 25.6 31.1 24.0 91 1.1 NNW 2 6 1 3 1009.7 1009.7 13.0
03/06:00pm 25.9 31.5 24.3 91 1.1 NE 2 2 1 1 1009.6 1009.6 13.0
03/05:30pm 25.7 30.8 24.1 91 1.1 N 4 6 2 3 1009.5 1009.5 12.8
03/05:00pm 25.6 31.4 24.0 91 1.1 CALM 0 0 0 0 1009.4 1009.4 12.8
03/04:30pm 25.4 30.4 23.8 91 1.1 NNW 4 4 2 2 1009.4 1009.4 12.8
03/04:00pm 25.6 31.3 23.8 90 1.2 CALM 0 2 0 1 1009.4 1009.4 12.8
03/03:30pm 25.3 31.0 23.7 91 1.1 CALM 0 2 0 1 1009.8 1009.8 12.8
03/03:00pm 25.0 30.5 23.4 91 1.1 CALM 0 2 0 1 1010.0 1010.0 12.8
03/02:30pm 24.4 27.9 22.8 91 1.1 NNW 9 13 5 7 1010.0 1010.0 12.8
03/02:00pm 24.0 25.1 22.3 90 1.1 NNE 20 35 11 19 1010.3 1010.3 10.8
03/01:36pm 27.4 27.8 21.0 68 4.2 NE 20 48 11 26 1010.2 1010.2 0.0
03/01:35pm 28.3 29.4 21.3 65 4.7 ENE 17 44 9 24 1010.2 1010.2 0.0
03/01:30pm 31.3 35.3 23.1 61 5.6 ESE 7 15 4 8 1009.9 1009.9 0.0
03/01:00pm 32.2 35.2 23.4 59 6.1 SE 13 20 7 11 1010.2 1010.2 0.0
03/12:30pm 32.0 35.3 23.8 62 5.7 SE 13 17 7 9 1011.2 1011.1 0.0
03/12:00pm 32.8 36.9 23.2 57 6.6 NE 7 15 4 8 1011.6 1011.5 0.0
03/11:30am 32.1 35.3 23.1 59 6.2 E 11 17 6 9 1012.0 1011.9 0.0
03/11:00am 31.2 34.6 24.1 66 4.9 SE 13 19 7 10 1012.6 1012.5 0.0
03/10:30am 29.8 33.8 23.7 70 4.2 SSE 9 13 5 7 1013.0 1012.9 0.0
03/10:00am 28.9 33.3 23.8 74 3.5 ESE 7 11 4 6 1013.1 1013.0 0.0
03/09:30am 28.6 32.9 23.7 75 3.4 SE 7 11 4 6 1012.8 1012.7 0.0
03/09:00am 27.4 32.0 24.1 82 2.3 SE 7 9 4 5 1012.3 1012.2 0.0
03/08:30am 25.4 29.7 23.3 88 1.4 ESE 6 7 3 4 1012.2 1012.1 0.0
03/08:00am 24.9 29.5 23.1 90 1.2 SE 4 6 2 3 1012.1 1012.0 0.0
03/07:30am 23.9 28.9 22.5 92 0.9 CALM 0 2 0 1 1012.2 1012.1 0.0
03/07:00am 23.6 28.4 22.2 92 0.9 CALM 0 0 0 0 1012.0 1011.9 0.0
03/06:30am 23.5 28.3 22.1 92 0.9 CALM 0 0 0 0 1011.5 1011.4 0.0
03/06:00am 23.6 27.7 22.2 92 0.9 ESE 4 6 2 3 1011.0 1010.9 0.0
03/05:30am 23.6 28.3 22.0 91 1.1 CALM 0 4 0 2 1010.9 1010.8 0.0
03/05:00am 23.5 27.0 22.1 92 0.9 SE 7 7 4 4 1010.7 1010.7 0.0
03/04:30am 23.4 27.6 21.8 91 1.1 S 2 6 1 3 1010.6 1010.6 0.0
03/04:00am 23.4 28.0 21.8 91 1.1 CALM 0 0 0 0 1010.5 1010.5 0.0
03/03:30am 23.3 27.1 21.6 90 1.1 SSW 4 6 2 3 1010.5 1010.5 0.0
03/03:00am 23.5 26.7 21.6 89 1.3 SSE 7 9 4 5 1010.5 1010.5 0.0
03/02:30am 23.8 27.1 21.9 89 1.3 S 7 9 4 5 1011.0 1010.9 0.0
03/02:00am 24.0 27.6 22.1 89 1.3 S 6 7 3 4 1011.4 1011.3 0.0
03/01:30am 24.0 28.3 21.9 88 1.4 S 2 4 1 2 1011.6 1011.5 0.0
03/01:00am 24.2 27.5 21.9 87 1.5 S 7 9 4 5 1012.1 1012.0 0.0
03/12:30am 24.5 27.6 22.2 87 1.5 S 9 13 5 7 1012.5 1012.4 0.0
03/12:00am 25.7 28.5 23.0 85 1.8 SSE 13 17 7 9 1012.8 1012.7 0.0
 
Date/Time
CST
Tmp

°C
App
Tmp
°C
Dew
Point
°C
Rel
Hum
%
Delta-T

°C
Wind Press
QNH
hPa
Press
MSL
hPa
Rain
since
9 am
mm
Dir
 
Spd
km/h
Gust
km/h
Spd
kts
Gust
kts
02/11:30pm 26.7 30.1 24.7 89 1.4 SE 15 26 8 14 1013.1 1013.0 0.0
02/11:00pm 26.6 31.8 24.8 90 1.3 ESE 6 6 3 3 1012.9 1012.8 0.0
02/10:30pm 26.5 31.9 24.5 89 1.4 E 4 6 2 3 1013.1 1013.0 0.0
02/10:00pm 26.6 32.7 24.4 88 1.5 CALM 0 0 0 0 1012.8 1012.7 0.0
02/09:30pm 26.8 32.9 24.5 87 1.6 CALM 0 0 0 0 1013.0 1012.9 0.0
02/09:00pm 27.0 33.1 24.5 86 1.7 CALM 0 0 0 0 1012.8 1012.7 0.0
02/08:30pm 26.9 31.8 24.4 86 1.7 N 6 6 3 3 1012.3 1012.2 0.0
02/08:00pm 27.3 32.6 24.4 84 2.0 N 4 6 2 3 1011.9 1011.8 0.0
02/07:30pm 27.7 32.6 24.3 82 2.4 NNE 6 9 3 5 1011.6 1011.5 0.0
02/07:00pm 27.9 33.2 24.3 81 2.5 NNE 4 6 2 3 1011.1 1011.0 0.0
02/06:30pm 28.4 33.6 24.2 78 2.9 NNE 4 6 2 3 1010.9 1010.8 0.0
02/06:00pm 29.2 33.8 24.1 74 3.5 NNE 7 9 4 5 1010.0 1010.0 0.0
02/05:30pm 30.0 33.4 23.4 67 4.5 NNE 11 17 6 9 1009.6 1009.6 0.0
02/05:00pm 30.5 34.5 23.7 67 4.7 NNE 9 11 5 6 1009.6 1009.6 0.0
02/04:30pm 30.5 32.8 23.4 66 4.9 NE 17 22 9 12 1009.0 1009.0 0.0
02/04:00pm 31.1 33.3 23.2 63 5.4 NNE 17 22 9 12 1008.8 1008.8 0.0
02/03:30pm 31.1 33.4 23.5 64 5.3 NNE 17 24 9 13 1009.0 1009.0 0.0
02/03:00pm 31.4 33.1 22.4 59 6.1 NNE 17 24 9 13 1009.0 1009.0 0.0
02/02:30pm 31.9 33.2 22.3 56 6.6 NE 19 28 10 15 1009.7 1009.7 0.0
02/02:00pm 31.7 33.5 23.2 60 5.9 NE 19 28 10 15 1010.0 1010.0 0.0
02/01:30pm 31.9 33.8 23.4 60 5.9 NE 19 26 10 14 1010.3 1010.3 0.0
02/01:00pm 32.5 34.4 23.7 59 6.1 NE 20 30 11 16 1010.4 1010.4 0.0
02/12:30pm 31.4 33.4 24.0 65 5.2 ENE 20 28 11 15 1010.9 1010.8 0.0
02/12:00pm 30.6 33.1 23.8 67 4.7 ENE 17 24 9 13 1011.5 1011.4 0.0
02/11:30am 30.1 32.9 24.3 71 4.0 ENE 17 24 9 13 1011.9 1011.8 0.0
02/11:00am 29.7 32.5 23.6 69 4.2 ENE 15 20 8 11 1012.3 1012.2 0.0
02/10:30am 29.2 33.5 24.3 75 3.4 E 9 15 5 8 1012.4 1012.3 0.0
02/10:00am 28.9 32.8 24.2 76 3.3 E 11 17 6 9 1012.3 1012.2 0.0
02/09:30am 27.8 32.6 24.4 82 2.4 ESE 7 13 4 7 1012.1 1012.0 0.0
02/09:00am 26.8 31.7 24.3 86 1.7 SE 6 7 3 4 1012.0 1011.9 0.6
02/08:30am 26.1 30.9 24.1 89 1.4 SSE 6 9 3 5 1011.9 1011.8 0.6
02/08:00am 25.7 30.4 23.9 90 1.2 S 6 7 3 4 1011.8 1011.7 0.6
02/07:30am 25.4 29.4 23.8 91 1.1 S 9 11 5 6 1011.5 1011.4 0.6
02/07:00am 25.1 30.8 23.7 92 1.0 CALM 0 0 0 0 1011.1 1011.0 0.6

Latest Capital City Observations: Canberra | Sydney | Melbourne | Brisbane | Adelaide | Perth | Hobart | Darwin

Other Formats:

Comma delimited format used in spreadsheet applications
http://www.bom.gov.au/fwo/IDD60901/IDD60901.95121.axf

JavaScript Object Notation format (JSON) in row-major order
http://www.bom.gov.au/fwo/IDD60901/IDD60901.95121.json